sensor_id;sensor_type;location;lat;lon;timestamp;pressure;altitude;pressure_sealevel;temperature;humidity
7200;BME280;3641;49.082;8.200;2023-07-28T00:01:25;99565.25;;;19.15;76.84
7200;BME280;3641;49.082;8.200;2023-07-28T00:03:52;99569.31;;;19.07;77.08
7200;BME280;3641;49.082;8.200;2023-07-28T00:06:18;99565.25;;;19.15;76.65
7200;BME280;3641;49.082;8.200;2023-07-28T00:08:44;99566.09;;;19.15;76.63
7200;BME280;3641;49.082;8.200;2023-07-28T00:11:12;99560.59;;;19.20;76.41
7200;BME280;3641;49.082;8.200;2023-07-28T00:13:39;99570.97;;;19.08;77.08
7200;BME280;3641;49.082;8.200;2023-07-28T00:16:06;99566.03;;;19.10;76.94
7200;BME280;3641;49.082;8.200;2023-07-28T00:18:35;99570.28;;;19.18;76.23
7200;BME280;3641;49.082;8.200;2023-07-28T00:21:01;99563.88;;;19.17;76.50
7200;BME280;3641;49.082;8.200;2023-07-28T00:23:28;99563.88;;;19.17;76.32
7200;BME280;3641;49.082;8.200;2023-07-28T00:25:54;99566.59;;;18.85;81.41
7200;BME280;3641;49.082;8.200;2023-07-28T00:28:21;99577.06;;;18.83;78.75
7200;BME280;3641;49.082;8.200;2023-07-28T00:30:48;99577.94;;;18.66;81.67
7200;BME280;3641;49.082;8.200;2023-07-28T00:33:15;99566.69;;;18.95;77.92
7200;BME280;3641;49.082;8.200;2023-07-28T00:35:43;99562.94;;;19.06;77.13
7200;BME280;3641;49.082;8.200;2023-07-28T00:38:09;99566.81;;;19.05;76.97
7200;BME280;3641;49.082;8.200;2023-07-28T00:40:36;99558.25;;;19.07;77.23
7200;BME280;3641;49.082;8.200;2023-07-28T00:43:02;99553.00;;;18.83;82.55
7200;BME280;3641;49.082;8.200;2023-07-28T00:45:29;99555.28;;;18.86;78.90
7200;BME280;3641;49.082;8.200;2023-07-28T00:47:57;99561.03;;;19.07;77.53
7200;BME280;3641;49.082;8.200;2023-07-28T00:50:24;99555.75;;;19.05;77.56
7200;BME280;3641;49.082;8.200;2023-07-28T00:52:52;99553.56;;;19.08;77.92
7200;BME280;3641;49.082;8.200;2023-07-28T00:55:19;99552.94;;;19.00;78.00
7200;BME280;3641;49.082;8.200;2023-07-28T00:57:47;99545.31;;;19.13;77.22
7200;BME280;3641;49.082;8.200;2023-07-28T01:00:13;99555.31;;;19.19;76.77
7200;BME280;3641;49.082;8.200;2023-07-28T01:02:40;99554.50;;;19.18;79.38
7200;BME280;3641;49.082;8.200;2023-07-28T01:05:06;99556.09;;;19.14;77.26
7200;BME280;3641;49.082;8.200;2023-07-28T01:07:37;99561.34;;;19.11;77.31
7200;BME280;3641;49.082;8.200;2023-07-28T01:10:10;99558.34;;;19.17;77.11
7200;BME280;3641;49.082;8.200;2023-07-28T01:12:37;99562.50;;;19.15;77.05
7200;BME280;3641;49.082;8.200;2023-07-28T01:15:05;99566.38;;;19.19;77.09
7200;BME280;3641;49.082;8.200;2023-07-28T01:17:32;99547.31;;;19.22;76.80
7200;BME280;3641;49.082;8.200;2023-07-28T01:19:58;99552.19;;;19.37;76.52
7200;BME280;3641;49.082;8.200;2023-07-28T01:22:46;99551.47;;;19.20;77.57
7200;BME280;3641;49.082;8.200;2023-07-28T01:25:18;99551.72;;;19.18;77.64
7200;BME280;3641;49.082;8.200;2023-07-28T01:30:16;99567.25;;;19.19;77.43
7200;BME280;3641;49.082;8.200;2023-07-28T01:32:44;99567.03;;;19.26;77.76
7200;BME280;3641;49.082;8.200;2023-07-28T01:35:11;99557.16;;;19.08;78.82
7200;BME280;3641;49.082;8.200;2023-07-28T01:37:37;99555.19;;;19.03;78.60
7200;BME280;3641;49.082;8.200;2023-07-28T01:40:04;99558.31;;;19.12;78.70
7200;BME280;3641;49.082;8.200;2023-07-28T01:42:31;99555.19;;;19.03;79.42
7200;BME280;3641;49.082;8.200;2023-07-28T01:44:59;99556.88;;;19.10;78.95
7200;BME280;3641;49.082;8.200;2023-07-28T01:47:25;99555.72;;;19.00;79.39
7200;BME280;3641;49.082;8.200;2023-07-28T01:49:52;99549.69;;;19.09;82.36
7200;BME280;3641;49.082;8.200;2023-07-28T01:52:18;99549.31;;;19.00;79.84
7200;BME280;3641;49.082;8.200;2023-07-28T01:54:45;99545.31;;;19.13;78.62
7200;BME280;3641;49.082;8.200;2023-07-28T01:57:11;99544.22;;;19.14;79.37
7200;BME280;3641;49.082;8.200;2023-07-28T01:59:38;99548.53;;;19.04;79.46
7200;BME280;3641;49.082;8.200;2023-07-28T02:02:06;99552.22;;;19.10;79.89
7200;BME280;3641;49.082;8.200;2023-07-28T02:04:32;99557.88;;;18.98;83.20
7200;BME280;3641;49.082;8.200;2023-07-28T02:06:58;99554.25;;;18.93;81.74
7200;BME280;3641;49.082;8.200;2023-07-28T02:09:25;99552.00;;;18.90;81.08
7200;BME280;3641;49.082;8.200;2023-07-28T02:11:52;99550.44;;;18.99;80.55
7200;BME280;3641;49.082;8.200;2023-07-28T02:14:18;99548.19;;;18.96;82.59
7200;BME280;3641;49.082;8.200;2023-07-28T02:16:45;99539.69;;;19.02;80.18
7200;BME280;3641;49.082;8.200;2023-07-28T02:19:12;99554.38;;;19.08;80.26
7200;BME280;3641;49.082;8.200;2023-07-28T02:21:39;99562.84;;;18.96;81.14
7200;BME280;3641;49.082;8.200;2023-07-28T02:24:05;99554.72;;;18.84;82.61
7200;BME280;3641;49.082;8.200;2023-07-28T02:26:32;99546.63;;;18.83;84.25
7200;BME280;3641;49.082;8.200;2023-07-28T02:28:58;99554.81;;;18.95;80.43
7200;BME280;3641;49.082;8.200;2023-07-28T02:31:24;99555.97;;;18.99;80.56
7200;BME280;3641;49.082;8.200;2023-07-28T02:33:51;99559.00;;;18.97;81.56
7200;BME280;3641;49.082;8.200;2023-07-28T02:36:18;99562.06;;;18.79;85.27
7200;BME280;3641;49.082;8.200;2023-07-28T02:38:45;99554.72;;;18.84;83.69
7200;BME280;3641;49.082;8.200;2023-07-28T02:41:11;99558.72;;;18.77;85.48
7200;BME280;3641;49.082;8.200;2023-07-28T02:43:38;99561.75;;;18.97;81.90
7200;BME280;3641;49.082;8.200;2023-07-28T02:46:04;99572.94;;;18.85;82.23
7200;BME280;3641;49.082;8.200;2023-07-28T02:48:31;99581.00;;;18.87;83.19
7200;BME280;3641;49.082;8.200;2023-07-28T02:50:57;99574.06;;;18.62;86.80
7200;BME280;3641;49.082;8.200;2023-07-28T02:53:25;99574.47;;;18.76;83.25
7200;BME280;3641;49.082;8.200;2023-07-28T02:55:51;99564.31;;;18.60;84.99
7200;BME280;3641;49.082;8.200;2023-07-28T02:58:18;99572.56;;;18.77;82.94
7200;BME280;3641;49.082;8.200;2023-07-28T03:00:44;99565.28;;;18.70;83.10
7200;BME280;3641;49.082;8.200;2023-07-28T03:03:12;99573.06;;;18.74;84.35
7200;BME280;3641;49.082;8.200;2023-07-28T03:05:39;99570.81;;;18.70;85.03
7200;BME280;3641;49.082;8.200;2023-07-28T03:08:06;99578.41;;;18.80;84.09
7200;BME280;3641;49.082;8.200;2023-07-28T03:10:33;99575.06;;;18.78;84.94
7200;BME280;3641;49.082;8.200;2023-07-28T03:13:00;99580.81;;;18.72;85.27
7200;BME280;3641;49.082;8.200;2023-07-28T03:15:26;99572.06;;;18.58;86.29
7200;BME280;3641;49.082;8.200;2023-07-28T03:17:53;99571.69;;;18.76;82.94
7200;BME280;3641;49.082;8.200;2023-07-28T03:20:19;99566.22;;;18.54;88.50
7200;BME280;3641;49.082;8.200;2023-07-28T03:22:46;99567.28;;;18.53;87.21
7200;BME280;3641;49.082;8.200;2023-07-28T03:25:12;99566.53;;;18.58;87.58
7200;BME280;3641;49.082;8.200;2023-07-28T03:27:40;99573.59;;;18.70;86.03
7200;BME280;3641;49.082;8.200;2023-07-28T03:30:07;99575.13;;;18.83;83.14
7200;BME280;3641;49.082;8.200;2023-07-28T03:32:35;99568.28;;;18.86;82.83
7200;BME280;3641;49.082;8.200;2023-07-28T03:35:02;99584.91;;;18.69;88.28
7200;BME280;3641;49.082;8.200;2023-07-28T03:37:30;99588.63;;;18.58;86.23
7200;BME280;3641;49.082;8.200;2023-07-28T03:39:56;99594.22;;;18.41;90.44
7200;BME280;3641;49.082;8.200;2023-07-28T03:42:23;99589.91;;;18.28;91.94
7200;BME280;3641;49.082;8.200;2023-07-28T03:44:51;99591.69;;;18.39;88.81
7200;BME280;3641;49.082;8.200;2023-07-28T03:47:17;99584.53;;;18.38;88.95
7200;BME280;3641;49.082;8.200;2023-07-28T03:49:44;99592.72;;;17.94;95.86
7200;BME280;3641;49.082;8.200;2023-07-28T03:52:10;99594.38;;;18.12;92.69
7200;BME280;3641;49.082;8.200;2023-07-28T03:54:36;99589.78;;;18.01;95.74
7200;BME280;3641;49.082;8.200;2023-07-28T03:57:03;99583.94;;;17.97;96.74
7200;BME280;3641;49.082;8.200;2023-07-28T03:59:29;99590.28;;;17.97;96.98
7200;BME280;3641;49.082;8.200;2023-07-28T04:01:57;99595.66;;;18.26;89.69
7200;BME280;3641;49.082;8.200;2023-07-28T04:04:24;99598.47;;;18.48;87.50
7200;BME280;3641;49.082;8.200;2023-07-28T04:06:50;99596.47;;;18.05;95.65
7200;BME280;3641;49.082;8.200;2023-07-28T04:09:18;99600.81;;;18.01;94.38
7200;BME280;3641;49.082;8.200;2023-07-28T04:11:45;99601.75;;;17.89;97.51
7200;BME280;3641;49.082;8.200;2023-07-28T04:14:12;99602.00;;;18.05;94.54
7200;BME280;3641;49.082;8.200;2023-07-28T04:16:39;99614.94;;;18.21;90.71
7200;BME280;3641;49.082;8.200;2023-07-28T04:19:07;99605.97;;;18.14;95.34
7200;BME280;3641;49.082;8.200;2023-07-28T04:21:33;99602.00;;;18.05;96.28
7200;BME280;3641;49.082;8.200;2023-07-28T04:24:00;99599.88;;;18.29;89.28
7200;BME280;3641;49.082;8.200;2023-07-28T04:26:26;99602.41;;;17.96;96.29
7200;BME280;3641;49.082;8.200;2023-07-28T04:28:53;99604.25;;;18.08;95.77
7200;BME280;3641;49.082;8.200;2023-07-28T04:31:19;99598.75;;;18.30;89.39
7200;BME280;3641;49.082;8.200;2023-07-28T04:33:45;99597.34;;;18.27;92.66
7200;BME280;3641;49.082;8.200;2023-07-28T04:36:13;99599.31;;;18.10;93.30
7200;BME280;3641;49.082;8.200;2023-07-28T04:38:39;99595.72;;;18.09;93.30
7200;BME280;3641;49.082;8.200;2023-07-28T04:41:06;99591.34;;;18.13;95.12
7200;BME280;3641;49.082;8.200;2023-07-28T04:43:32;99597.66;;;17.92;98.01
7200;BME280;3641;49.082;8.200;2023-07-28T04:45:59;99608.34;;;18.05;93.60
7200;BME280;3641;49.082;8.200;2023-07-28T04:48:26;99611.19;;;17.76;100.00
7200;BME280;3641;49.082;8.200;2023-07-28T04:50:53;99618.72;;;17.81;98.87
7200;BME280;3641;49.082;8.200;2023-07-28T04:53:21;99617.03;;;17.80;99.46
7200;BME280;3641;49.082;8.200;2023-07-28T04:55:47;99606.91;;;17.69;100.00
7200;BME280;3641;49.082;8.200;2023-07-28T04:58:14;99603.34;;;18.02;94.23
7200;BME280;3641;49.082;8.200;2023-07-28T05:00:40;99611.28;;;17.99;96.34
7200;BME280;3641;49.082;8.200;2023-07-28T05:03:07;99613.38;;;17.91;97.56
7200;BME280;3641;49.082;8.200;2023-07-28T05:05:33;99619.56;;;17.65;100.00
7200;BME280;3641;49.082;8.200;2023-07-28T05:08:00;99611.34;;;17.70;100.00
7200;BME280;3641;49.082;8.200;2023-07-28T05:10:28;99609.25;;;17.77;100.00
7200;BME280;3641;49.082;8.200;2023-07-28T05:12:54;99612.34;;;17.47;100.00
7200;BME280;3641;49.082;8.200;2023-07-28T05:15:21;99605.91;;;17.58;100.00
7200;BME280;3641;49.082;8.200;2023-07-28T05:17:48;99613.06;;;17.42;100.00
7200;BME280;3641;49.082;8.200;2023-07-28T05:20:15;99611.00;;;17.83;100.00
7200;BME280;3641;49.082;8.200;2023-07-28T05:22:42;99622.78;;;17.90;100.00
7200;BME280;3641;49.082;8.200;2023-07-28T05:25:08;99616.28;;;17.51;100.00
7200;BME280;3641;49.082;8.200;2023-07-28T05:27:36;99621.97;;;17.61;100.00
7200;BME280;3641;49.082;8.200;2023-07-28T05:30:03;99625.06;;;17.48;100.00
7200;BME280;3641;49.082;8.200;2023-07-28T05:32:30;99627.44;;;17.73;100.00
7200;BME280;3641;49.082;8.200;2023-07-28T05:34:56;99628.50;;;17.72;100.00
7200;BME280;3641;49.082;8.200;2023-07-28T05:37:23;99635.16;;;17.88;100.00
7200;BME280;3641;49.082;8.200;2023-07-28T05:39:49;99624.31;;;17.69;100.00
7200;BME280;3641;49.082;8.200;2023-07-28T05:42:16;99627.59;;;17.83;100.00
7200;BME280;3641;49.082;8.200;2023-07-28T05:44:44;99627.19;;;17.91;100.00
7200;BME280;3641;49.082;8.200;2023-07-28T05:47:10;99633.22;;;17.88;100.00
7200;BME280;3641;49.082;8.200;2023-07-28T05:49:37;99635.97;;;17.88;100.00
7200;BME280;3641;49.082;8.200;2023-07-28T05:52:04;99641.31;;;18.12;96.31
7200;BME280;3641;49.082;8.200;2023-07-28T05:54:30;99639.50;;;18.01;100.00
7200;BME280;3641;49.082;8.200;2023-07-28T05:56:57;99631.44;;;17.99;100.00
7200;BME280;3641;49.082;8.200;2023-07-28T05:59:23;99651.78;;;18.10;99.80
7200;BME280;3641;49.082;8.200;2023-07-28T06:01:51;99650.03;;;18.04;100.00
7200;BME280;3641;49.082;8.200;2023-07-28T06:04:18;99648.59;;;18.01;100.00
7200;BME280;3641;49.082;8.200;2023-07-28T06:06:44;99657.47;;;18.20;96.43
7200;BME280;3641;49.082;8.200;2023-07-28T06:09:10;99664.53;;;17.82;100.00
7200;BME280;3641;49.082;8.200;2023-07-28T06:11:37;99659.19;;;17.58;100.00
7200;BME280;3641;49.082;8.200;2023-07-28T06:14:04;99667.41;;;17.70;100.00
7200;BME280;3641;49.082;8.200;2023-07-28T06:16:30;99664.47;;;17.77;100.00
7200;BME280;3641;49.082;8.200;2023-07-28T06:18:58;99664.06;;;17.85;100.00
7200;BME280;3641;49.082;8.200;2023-07-28T06:21:25;99672.75;;;17.60;100.00
7200;BME280;3641;49.082;8.200;2023-07-28T06:23:51;99669.94;;;18.06;100.00
7200;BME280;3641;49.082;8.200;2023-07-28T06:26:17;99673.94;;;17.81;100.00
7200;BME280;3641;49.082;8.200;2023-07-28T06:28:44;99675.25;;;17.78;100.00
7200;BME280;3641;49.082;8.200;2023-07-28T06:31:11;99672.09;;;17.70;100.00
7200;BME280;3641;49.082;8.200;2023-07-28T06:33:37;99675.00;;;17.92;100.00
7200;BME280;3641;49.082;8.200;2023-07-28T06:36:05;99678.66;;;18.14;100.00
7200;BME280;3641;49.082;8.200;2023-07-28T06:38:32;99681.94;;;18.11;100.00
7200;BME280;3641;49.082;8.200;2023-07-28T06:40:58;99681.75;;;18.35;98.66
7200;BME280;3641;49.082;8.200;2023-07-28T06:43:25;99685.34;;;18.02;100.00
7200;BME280;3641;49.082;8.200;2023-07-28T06:45:52;99692.75;;;17.84;100.00
7200;BME280;3641;49.082;8.200;2023-07-28T06:48:19;99699.38;;;17.83;100.00
7200;BME280;3641;49.082;8.200;2023-07-28T06:50:45;99699.91;;;17.97;100.00
7200;BME280;3641;49.082;8.200;2023-07-28T06:53:13;99697.31;;;18.07;100.00
7200;BME280;3641;49.082;8.200;2023-07-28T06:55:40;99703.09;;;18.23;100.00
7200;BME280;3641;49.082;8.200;2023-07-28T06:58:06;99704.44;;;18.20;100.00
7200;BME280;3641;49.082;8.200;2023-07-28T07:00:33;99701.88;;;17.85;100.00
7200;BME280;3641;49.082;8.200;2023-07-28T07:02:59;99703.34;;;18.04;100.00
7200;BME280;3641;49.082;8.200;2023-07-28T07:05:26;99705.44;;;18.14;100.00
7200;BME280;3641;49.082;8.200;2023-07-28T07:07:52;99716.59;;;18.19;100.00
7200;BME280;3641;49.082;8.200;2023-07-28T07:10:20;99711.81;;;18.14;100.00
7200;BME280;3641;49.082;8.200;2023-07-28T07:12:47;99716.91;;;18.23;100.00
7200;BME280;3641;49.082;8.200;2023-07-28T07:15:14;99709.53;;;18.45;98.65
7200;BME280;3641;49.082;8.200;2023-07-28T07:17:40;99724.38;;;18.22;100.00
7200;BME280;3641;49.082;8.200;2023-07-28T07:20:08;99721.25;;;18.19;100.00
7200;BME280;3641;49.082;8.200;2023-07-28T07:22:35;99718.91;;;18.27;100.00
7200;BME280;3641;49.082;8.200;2023-07-28T07:25:02;99719.00;;;18.32;100.00
7200;BME280;3641;49.082;8.200;2023-07-28T07:27:30;99727.28;;;18.32;100.00
7200;BME280;3641;49.082;8.200;2023-07-28T07:29:56;99721.66;;;18.44;100.00
7200;BME280;3641;49.082;8.200;2023-07-28T07:32:22;99721.75;;;18.49;100.00
7200;BME280;3641;49.082;8.200;2023-07-28T07:34:49;99726.22;;;18.33;100.00
7200;BME280;3641;49.082;8.200;2023-07-28T07:37:15;99723.34;;;18.28;100.00
7200;BME280;3641;49.082;8.200;2023-07-28T07:39:42;99725.53;;;18.26;100.00
7200;BME280;3641;49.082;8.200;2023-07-28T07:42:10;99728.97;;;18.33;100.00
7200;BME280;3641;49.082;8.200;2023-07-28T07:44:38;99729.88;;;18.39;100.00
7200;BME280;3641;49.082;8.200;2023-07-28T07:47:11;99740.59;;;18.36;100.00
7200;BME280;3641;49.082;8.200;2023-07-28T07:49:38;99742.19;;;18.31;100.00
7200;BME280;3641;49.082;8.200;2023-07-28T07:52:06;99745.38;;;18.40;100.00
7200;BME280;3641;49.082;8.200;2023-07-28T07:54:33;99740.84;;;18.51;100.00
7200;BME280;3641;49.082;8.200;2023-07-28T07:56:59;99754.31;;;18.47;100.00
7200;BME280;3641;49.082;8.200;2023-07-28T07:59:26;99743.94;;;18.55;100.00
7200;BME280;3641;49.082;8.200;2023-07-28T08:01:57;99754.31;;;18.47;100.00
7200;BME280;3641;49.082;8.200;2023-07-28T08:04:25;99746.94;;;18.53;100.00
7200;BME280;3641;49.082;8.200;2023-07-28T08:06:53;99755.81;;;18.55;100.00
7200;BME280;3641;49.082;8.200;2023-07-28T08:09:19;99758.00;;;18.53;100.00
7200;BME280;3641;49.082;8.200;2023-07-28T08:11:46;99758.34;;;18.57;100.00
7200;BME280;3641;49.082;8.200;2023-07-28T08:14:12;99754.75;;;18.56;100.00
7200;BME280;3641;49.082;8.200;2023-07-28T08:16:39;99756.56;;;18.67;100.00
7200;BME280;3641;49.082;8.200;2023-07-28T08:19:06;99757.72;;;18.88;99.08
7200;BME280;3641;49.082;8.200;2023-07-28T08:21:33;99755.69;;;19.01;98.76
7200;BME280;3641;49.082;8.200;2023-07-28T08:24:01;99767.00;;;18.99;98.18
7200;BME280;3641;49.082;8.200;2023-07-28T08:26:28;99763.94;;;19.18;97.28
7200;BME280;3641;49.082;8.200;2023-07-28T08:28:55;99763.56;;;19.31;95.37
7200;BME280;3641;49.082;8.200;2023-07-28T08:31:21;99776.81;;;19.07;97.78
7200;BME280;3641;49.082;8.200;2023-07-28T08:33:48;99767.59;;;19.01;98.20
7200;BME280;3641;49.082;8.200;2023-07-28T08:36:16;99772.56;;;19.21;96.07
7200;BME280;3641;49.082;8.200;2023-07-28T08:38:43;99767.50;;;19.13;97.55
7200;BME280;3641;49.082;8.200;2023-07-28T08:41:10;99768.88;;;19.16;97.78
7200;BME280;3641;49.082;8.200;2023-07-28T08:43:37;99773.41;;;19.22;97.86
7200;BME280;3641;49.082;8.200;2023-07-28T08:46:03;99771.72;;;19.21;97.63
7200;BME280;3641;49.082;8.200;2023-07-28T08:48:30;99772.50;;;19.38;94.49
7200;BME280;3641;49.082;8.200;2023-07-28T08:50:56;99768.69;;;19.45;94.52
7200;BME280;3641;49.082;8.200;2023-07-28T08:53:24;99773.41;;;19.44;95.89
7200;BME280;3641;49.082;8.200;2023-07-28T08:55:51;99764.94;;;19.56;94.27
7200;BME280;3641;49.082;8.200;2023-07-28T08:58:20;99768.16;;;19.48;94.27
7200;BME280;3641;49.082;8.200;2023-07-28T09:00:47;99759.41;;;19.56;93.99
7200;BME280;3641;49.082;8.200;2023-07-28T09:03:15;99767.03;;;19.66;92.82
7200;BME280;3641;49.082;8.200;2023-07-28T09:05:42;99767.03;;;19.66;92.94
7200;BME280;3641;49.082;8.200;2023-07-28T09:08:09;99767.91;;;19.71;92.32
7200;BME280;3641;49.082;8.200;2023-07-28T09:10:43;99776.28;;;19.76;91.51
7200;BME280;3641;49.082;8.200;2023-07-28T09:13:11;99777.41;;;20.03;90.62
7200;BME280;3641;49.082;8.200;2023-07-28T09:15:38;99768.34;;;20.12;88.70
7200;BME280;3641;49.082;8.200;2023-07-28T09:18:07;99773.97;;;20.23;86.76
7200;BME280;3641;49.082;8.200;2023-07-28T09:20:35;99771.34;;;20.38;86.85
7200;BME280;3641;49.082;8.200;2023-07-28T09:23:02;99767.41;;;20.34;86.03
7200;BME280;3641;49.082;8.200;2023-07-28T09:25:31;99779.38;;;20.40;86.24
7200;BME280;3641;49.082;8.200;2023-07-28T09:27:59;99777.44;;;20.40;86.06
7200;BME280;3641;49.082;8.200;2023-07-28T09:30:26;99781.84;;;20.36;86.07
7200;BME280;3641;49.082;8.200;2023-07-28T09:32:54;99787.72;;;20.40;85.56
7200;BME280;3641;49.082;8.200;2023-07-28T09:35:22;99783.63;;;20.47;86.18
7200;BME280;3641;49.082;8.200;2023-07-28T09:37:49;99788.88;;;20.44;85.58
7200;BME280;3641;49.082;8.200;2023-07-28T09:40:19;99794.00;;;20.30;86.84
7200;BME280;3641;49.082;8.200;2023-07-28T09:42:47;99788.72;;;19.74;91.95
7200;BME280;3641;49.082;8.200;2023-07-28T09:45:17;99789.41;;;19.86;92.22
7200;BME280;3641;49.082;8.200;2023-07-28T09:47:45;99789.84;;;20.00;91.18
7200;BME280;3641;49.082;8.200;2023-07-28T09:50:15;99780.22;;;20.40;88.74
7200;BME280;3641;49.082;8.200;2023-07-28T09:52:43;99780.88;;;20.53;87.83
7200;BME280;3641;49.082;8.200;2023-07-28T09:55:10;99777.28;;;20.52;87.03
7200;BME280;3641;49.082;8.200;2023-07-28T09:57:41;99776.03;;;20.70;86.08
7200;BME280;3641;49.082;8.200;2023-07-28T10:00:11;99779.09;;;20.74;85.35
7200;BME280;3641;49.082;8.200;2023-07-28T10:02:40;99779.72;;;20.81;85.46
7200;BME280;3641;49.082;8.200;2023-07-28T10:05:07;99785.06;;;20.55;86.00
7200;BME280;3641;49.082;8.200;2023-07-28T10:07:37;99802.38;;;20.08;88.86
7200;BME280;3641;49.082;8.200;2023-07-28T10:10:06;99801.66;;;19.90;94.68
7200;BME280;3641;49.082;8.200;2023-07-28T10:12:40;99795.19;;;19.85;94.58
7200;BME280;3641;49.082;8.200;2023-07-28T10:15:12;99796.56;;;19.38;99.83
7200;BME280;3641;49.082;8.200;2023-07-28T10:17:43;99818.50;;;19.45;100.00
7200;BME280;3641;49.082;8.200;2023-07-28T10:20:31;99798.88;;;19.46;100.00
7200;BME280;3641;49.082;8.200;2023-07-28T10:23:07;99798.56;;;19.42;100.00
7200;BME280;3641;49.082;8.200;2023-07-28T10:25:37;99806.81;;;19.37;100.00
7200;BME280;3641;49.082;8.200;2023-07-28T10:28:05;99805.50;;;19.23;100.00
7200;BME280;3641;49.082;8.200;2023-07-28T10:30:40;99800.41;;;19.59;100.00
7200;BME280;3641;49.082;8.200;2023-07-28T10:33:28;99809.53;;;19.32;100.00
7200;BME280;3641;49.082;8.200;2023-07-28T10:35:55;99804.81;;;19.55;100.00
7200;BME280;3641;49.082;8.200;2023-07-28T10:38:29;99802.81;;;19.50;100.00
7200;BME280;3641;49.082;8.200;2023-07-28T10:41:05;99799.69;;;19.91;100.00
7200;BME280;3641;49.082;8.200;2023-07-28T10:43:33;99808.25;;;19.67;100.00
7200;BME280;3641;49.082;8.200;2023-07-28T10:45:59;99806.75;;;19.76;100.00
7200;BME280;3641;49.082;8.200;2023-07-28T10:48:27;99808.09;;;19.74;100.00
7200;BME280;3641;49.082;8.200;2023-07-28T10:50:53;99803.72;;;19.78;100.00
7200;BME280;3641;49.082;8.200;2023-07-28T10:53:20;99808.22;;;19.62;100.00
7200;BME280;3641;49.082;8.200;2023-07-28T10:55:47;99809.00;;;19.80;100.00
7200;BME280;3641;49.082;8.200;2023-07-28T10:58:13;99816.41;;;19.74;99.74
7200;BME280;3641;49.082;8.200;2023-07-28T11:00:39;99817.22;;;19.74;99.13
7200;BME280;3641;49.082;8.200;2023-07-28T11:03:08;99811.38;;;19.93;98.14
7200;BME280;3641;49.082;8.200;2023-07-28T11:05:36;99816.00;;;19.87;97.20
7200;BME280;3641;49.082;8.200;2023-07-28T11:08:03;99814.06;;;19.88;97.51
7200;BME280;3641;49.082;8.200;2023-07-28T11:10:31;99819.09;;;19.91;95.70
7200;BME280;3641;49.082;8.200;2023-07-28T11:13:00;99818.31;;;19.95;93.95
7200;BME280;3641;49.082;8.200;2023-07-28T11:15:27;99814.25;;;20.03;93.73
7200;BME280;3641;49.082;8.200;2023-07-28T11:17:54;99813.28;;;20.20;92.63
7200;BME280;3641;49.082;8.200;2023-07-28T11:20:22;99810.50;;;20.20;92.08
7200;BME280;3641;49.082;8.200;2023-07-28T11:22:54;99812.88;;;20.33;91.96
7200;BME280;3641;49.082;8.200;2023-07-28T11:25:22;99810.47;;;20.14;92.59
7200;BME280;3641;49.082;8.200;2023-07-28T11:27:49;99815.97;;;20.09;93.02
7200;BME280;3641;49.082;8.200;2023-07-28T11:30:17;99812.19;;;20.21;92.57
7200;BME280;3641;49.082;8.200;2023-07-28T11:32:44;99821.47;;;20.31;93.09
7200;BME280;3641;49.082;8.200;2023-07-28T11:35:13;99811.94;;;19.95;94.47
7200;BME280;3641;49.082;8.200;2023-07-28T11:37:41;99816.31;;;19.91;94.84
7200;BME280;3641;49.082;8.200;2023-07-28T11:40:10;99821.47;;;20.04;96.25
7200;BME280;3641;49.082;8.200;2023-07-28T11:42:38;99822.03;;;20.06;95.84
7200;BME280;3641;49.082;8.200;2023-07-28T11:45:06;99822.09;;;20.11;94.73
7200;BME280;3641;49.082;8.200;2023-07-28T11:47:35;99827.47;;;19.96;95.46
7200;BME280;3641;49.082;8.200;2023-07-28T11:50:01;99820.78;;;19.92;98.30
7200;BME280;3641;49.082;8.200;2023-07-28T11:52:32;99818.31;;;19.95;96.16
7200;BME280;3641;49.082;8.200;2023-07-28T11:55:00;99820.09;;;20.07;95.19
7200;BME280;3641;49.082;8.200;2023-07-28T11:57:29;99821.75;;;19.81;98.84
7200;BME280;3641;49.082;8.200;2023-07-28T11:59:57;99825.22;;;19.93;97.48
7200;BME280;3641;49.082;8.200;2023-07-28T12:02:27;99824.84;;;19.84;98.27
7200;BME280;3641;49.082;8.200;2023-07-28T12:04:54;99820.69;;;19.82;100.00
7200;BME280;3641;49.082;8.200;2023-07-28T12:07:27;99812.25;;;19.99;97.31
7200;BME280;3641;49.082;8.200;2023-07-28T12:09:54;99822.84;;;20.07;96.41
7200;BME280;3641;49.082;8.200;2023-07-28T12:12:26;99810.94;;;19.79;100.00
7200;BME280;3641;49.082;8.200;2023-07-28T12:14:55;99821.69;;;19.53;100.00
7200;BME280;3641;49.082;8.200;2023-07-28T12:17:25;99820.94;;;20.07;95.45
7200;BME280;3641;49.082;8.200;2023-07-28T12:20:01;99817.56;;;19.34;100.00
7200;BME280;3641;49.082;8.200;2023-07-28T12:22:31;99827.28;;;19.36;100.00
7200;BME280;3641;49.082;8.200;2023-07-28T12:24:57;99824.28;;;19.21;100.00
7200;BME280;3641;49.082;8.200;2023-07-28T12:27:24;99824.84;;;19.01;100.00
7200;BME280;3641;49.082;8.200;2023-07-28T12:29:52;99829.28;;;19.41;100.00
7200;BME280;3641;49.082;8.200;2023-07-28T12:32:20;99829.00;;;19.42;100.00
7200;BME280;3641;49.082;8.200;2023-07-28T12:34:48;99836.47;;;19.20;100.00
7200;BME280;3641;49.082;8.200;2023-07-28T12:37:15;99834.66;;;19.09;100.00
7200;BME280;3641;49.082;8.200;2023-07-28T12:39:41;99838.25;;;18.92;100.00
7200;BME280;3641;49.082;8.200;2023-07-28T12:42:09;99842.25;;;19.18;100.00
7200;BME280;3641;49.082;8.200;2023-07-28T12:44:36;99835.28;;;19.16;100.00
7200;BME280;3641;49.082;8.200;2023-07-28T12:47:03;99835.66;;;18.85;100.00
7200;BME280;3641;49.082;8.200;2023-07-28T12:49:31;99834.75;;;18.80;100.00
7200;BME280;3641;49.082;8.200;2023-07-28T12:52:00;99835.56;;;18.63;100.00
7200;BME280;3641;49.082;8.200;2023-07-28T12:54:27;99843.03;;;18.97;100.00
7200;BME280;3641;49.082;8.200;2023-07-28T12:56:54;99838.50;;;18.74;100.00
7200;BME280;3641;49.082;8.200;2023-07-28T12:59:21;99842.81;;;19.20;100.00
7200;BME280;3641;49.082;8.200;2023-07-28T13:01:47;99841.09;;;18.80;100.00
7200;BME280;3641;49.082;8.200;2023-07-28T13:04:14;99843.28;;;18.78;100.00
7200;BME280;3641;49.082;8.200;2023-07-28T13:06:42;99843.72;;;18.87;100.00
7200;BME280;3641;49.082;8.200;2023-07-28T13:09:09;99841.94;;;18.64;100.00
7200;BME280;3641;49.082;8.200;2023-07-28T13:11:36;99841.50;;;18.55;100.00
7200;BME280;3641;49.082;8.200;2023-07-28T13:14:02;99835.50;;;18.92;100.00
7200;BME280;3641;49.082;8.200;2023-07-28T13:16:29;99842.53;;;19.00;100.00
7200;BME280;3641;49.082;8.200;2023-07-28T13:18:56;99843.94;;;19.19;100.00
7200;BME280;3641;49.082;8.200;2023-07-28T13:21:24;99851.00;;;18.93;100.00